sensor_id;sensor_type;location;lat;lon;timestamp;P1;durP1;ratioP1;P2;durP2;ratioP2
57231;SDS011;43488;46.934;8.276;2023-02-01T00:01:07;490.92;;;243.30;;
57231;SDS011;43488;46.934;8.276;2023-02-01T00:03:36;509.13;;;260.95;;
57231;SDS011;43488;46.934;8.276;2023-02-01T00:06:03;503.75;;;249.27;;
57231;SDS011;43488;46.934;8.276;2023-02-01T00:08:31;482.40;;;340.42;;
57231;SDS011;43488;46.934;8.276;2023-02-01T00:11:01;507.85;;;255.57;;
57231;SDS011;43488;46.934;8.276;2023-02-01T00:13:36;493.10;;;249.80;;
57231;SDS011;43488;46.934;8.276;2023-02-01T00:16:09;504.13;;;247.98;;
57231;SDS011;43488;46.934;8.276;2023-02-01T00:18:39;505.23;;;259.15;;
57231;SDS011;43488;46.934;8.276;2023-02-01T00:21:07;474.67;;;329.70;;
57231;SDS011;43488;46.934;8.276;2023-02-01T00:23:37;469.60;;;233.65;;
57231;SDS011;43488;46.934;8.276;2023-02-01T00:26:06;442.15;;;315.50;;
57231;SDS011;43488;46.934;8.276;2023-02-01T00:28:42;442.75;;;312.60;;
57231;SDS011;43488;46.934;8.276;2023-02-01T00:31:09;479.33;;;236.90;;
57231;SDS011;43488;46.934;8.276;2023-02-01T00:33:36;475.42;;;238.23;;
57231;SDS011;43488;46.934;8.276;2023-02-01T00:36:05;483.05;;;242.80;;
57231;SDS011;43488;46.934;8.276;2023-02-01T00:38:37;481.52;;;236.85;;
57231;SDS011;43488;46.934;8.276;2023-02-01T00:41:06;472.83;;;343.50;;
57231;SDS011;43488;46.934;8.276;2023-02-01T00:43:40;481.05;;;240.45;;
57231;SDS011;43488;46.934;8.276;2023-02-01T00:46:08;464.77;;;326.90;;
57231;SDS011;43488;46.934;8.276;2023-02-01T00:48:37;482.25;;;243.10;;
57231;SDS011;43488;46.934;8.276;2023-02-01T00:51:14;477.13;;;231.95;;
57231;SDS011;43488;46.934;8.276;2023-02-01T00:53:45;481.90;;;237.57;;
57231;SDS011;43488;46.934;8.276;2023-02-01T00:56:13;491.80;;;252.50;;
57231;SDS011;43488;46.934;8.276;2023-02-01T00:58:40;466.50;;;329.25;;
57231;SDS011;43488;46.934;8.276;2023-02-01T01:01:12;424.25;;;310.92;;
57231;SDS011;43488;46.934;8.276;2023-02-01T01:03:44;460.90;;;222.60;;
57231;SDS011;43488;46.934;8.276;2023-02-01T01:06:14;488.45;;;258.95;;
57231;SDS011;43488;46.934;8.276;2023-02-01T01:08:43;443.73;;;319.45;;
57231;SDS011;43488;46.934;8.276;2023-02-01T01:11:12;472.70;;;233.23;;
57231;SDS011;43488;46.934;8.276;2023-02-01T01:13:45;478.77;;;238.48;;
57231;SDS011;43488;46.934;8.276;2023-02-01T01:16:14;466.90;;;235.07;;
57231;SDS011;43488;46.934;8.276;2023-02-01T01:18:42;461.95;;;227.55;;
57231;SDS011;43488;46.934;8.276;2023-02-01T01:21:12;467.70;;;234.25;;
57231;SDS011;43488;46.934;8.276;2023-02-01T01:23:41;449.83;;;328.00;;
57231;SDS011;43488;46.934;8.276;2023-02-01T01:26:12;467.23;;;230.20;;
57231;SDS011;43488;46.934;8.276;2023-02-01T01:28:44;446.35;;;320.02;;
57231;SDS011;43488;46.934;8.276;2023-02-01T01:31:12;434.67;;;302.42;;
57231;SDS011;43488;46.934;8.276;2023-02-01T01:33:42;431.25;;;306.95;;
57231;SDS011;43488;46.934;8.276;2023-02-01T01:36:11;421.85;;;304.90;;
57231;SDS011;43488;46.934;8.276;2023-02-01T01:38:40;405.52;;;294.58;;
57231;SDS011;43488;46.934;8.276;2023-02-01T01:41:12;406.42;;;295.85;;
57231;SDS011;43488;46.934;8.276;2023-02-01T01:43:47;412.75;;;304.70;;
57231;SDS011;43488;46.934;8.276;2023-02-01T01:46:36;432.00;;;212.55;;
57231;SDS011;43488;46.934;8.276;2023-02-01T01:49:08;393.10;;;291.75;;
57231;SDS011;43488;46.934;8.276;2023-02-01T01:51:42;438.85;;;215.63;;
57231;SDS011;43488;46.934;8.276;2023-02-01T01:54:17;444.30;;;220.93;;
57231;SDS011;43488;46.934;8.276;2023-02-01T01:56:58;447.65;;;222.45;;
57231;SDS011;43488;46.934;8.276;2023-02-01T01:59:35;408.55;;;293.20;;
57231;SDS011;43488;46.934;8.276;2023-02-01T02:02:07;455.88;;;233.27;;
57231;SDS011;43488;46.934;8.276;2023-02-01T02:04:36;460.23;;;236.82;;
57231;SDS011;43488;46.934;8.276;2023-02-01T02:07:09;446.15;;;223.40;;
57231;SDS011;43488;46.934;8.276;2023-02-01T02:09:50;418.70;;;308.92;;
57231;SDS011;43488;46.934;8.276;2023-02-01T02:12:19;416.13;;;299.92;;
57231;SDS011;43488;46.934;8.276;2023-02-01T02:14:47;461.67;;;243.07;;
57231;SDS011;43488;46.934;8.276;2023-02-01T02:40:05;454.95;;;322.45;;
57231;SDS011;43488;46.934;8.276;2023-02-01T02:42:43;433.90;;;300.23;;
57231;SDS011;43488;46.934;8.276;2023-02-01T02:46:00;478.27;;;247.23;;
57231;SDS011;43488;46.934;8.276;2023-02-01T02:49:20;461.33;;;230.18;;
57231;SDS011;43488;46.934;8.276;2023-02-01T02:51:59;460.40;;;224.88;;
57231;SDS011;43488;46.934;8.276;2023-02-01T02:54:55;455.23;;;221.65;;
57231;SDS011;43488;46.934;8.276;2023-02-01T03:00:18;463.42;;;240.98;;
57231;SDS011;43488;46.934;8.276;2023-02-01T03:03:09;460.60;;;231.48;;
57231;SDS011;43488;46.934;8.276;2023-02-01T03:05:55;466.77;;;239.98;;
57231;SDS011;43488;46.934;8.276;2023-02-01T03:08:24;433.20;;;309.80;;
57231;SDS011;43488;46.934;8.276;2023-02-01T03:11:10;435.25;;;318.00;;
57231;SDS011;43488;46.934;8.276;2023-02-01T03:13:58;451.00;;;230.13;;
57231;SDS011;43488;46.934;8.276;2023-02-01T03:19:22;449.05;;;229.40;;
57231;SDS011;43488;46.934;8.276;2023-02-01T03:21:59;413.60;;;302.17;;
57231;SDS011;43488;46.934;8.276;2023-02-01T03:24:54;400.45;;;295.45;;
57231;SDS011;43488;46.934;8.276;2023-02-01T03:32:55;424.48;;;306.00;;
57231;SDS011;43488;46.934;8.276;2023-02-01T03:35:32;438.60;;;221.20;;
57231;SDS011;43488;46.934;8.276;2023-02-01T03:40:53;435.85;;;215.45;;
57231;SDS011;43488;46.934;8.276;2023-02-01T03:44:06;442.55;;;222.80;;
57231;SDS011;43488;46.934;8.276;2023-02-01T03:46:52;406.55;;;294.42;;
57231;SDS011;43488;46.934;8.276;2023-02-01T03:49:43;387.23;;;288.00;;
57231;SDS011;43488;46.934;8.276;2023-02-01T03:52:18;386.92;;;294.38;;
57231;SDS011;43488;46.934;8.276;2023-02-01T03:55:06;401.42;;;206.70;;
57231;SDS011;43488;46.934;8.276;2023-02-01T03:57:37;432.90;;;220.60;;
57231;SDS011;43488;46.934;8.276;2023-02-01T04:00:22;370.92;;;277.77;;
57231;SDS011;43488;46.934;8.276;2023-02-01T04:02:52;434.27;;;223.02;;
57231;SDS011;43488;46.934;8.276;2023-02-01T04:05:21;425.88;;;214.18;;
57231;SDS011;43488;46.934;8.276;2023-02-01T04:07:49;418.00;;;210.07;;
57231;SDS011;43488;46.934;8.276;2023-02-01T04:10:16;395.85;;;297.02;;
57231;SDS011;43488;46.934;8.276;2023-02-01T04:12:43;395.95;;;298.08;;
57231;SDS011;43488;46.934;8.276;2023-02-01T04:15:11;386.45;;;294.27;;
57231;SDS011;43488;46.934;8.276;2023-02-01T04:17:40;433.77;;;225.63;;
57231;SDS011;43488;46.934;8.276;2023-02-01T04:20:10;398.10;;;306.88;;
57231;SDS011;43488;46.934;8.276;2023-02-01T04:22:37;425.10;;;219.07;;
57231;SDS011;43488;46.934;8.276;2023-02-01T04:25:05;402.17;;;302.13;;
57231;SDS011;43488;46.934;8.276;2023-02-01T04:27:34;422.88;;;318.50;;
57231;SDS011;43488;46.934;8.276;2023-02-01T04:30:03;406.67;;;307.58;;
57231;SDS011;43488;46.934;8.276;2023-02-01T04:32:31;439.95;;;227.82;;
57231;SDS011;43488;46.934;8.276;2023-02-01T04:34:58;432.40;;;215.82;;
57231;SDS011;43488;46.934;8.276;2023-02-01T04:37:25;458.40;;;234.60;;
57231;SDS011;43488;46.934;8.276;2023-02-01T04:39:53;467.35;;;240.70;;
57231;SDS011;43488;46.934;8.276;2023-02-01T04:42:20;455.08;;;312.63;;
57231;SDS011;43488;46.934;8.276;2023-02-01T04:44:47;482.70;;;253.98;;
57231;SDS011;43488;46.934;8.276;2023-02-01T04:47:14;483.63;;;246.45;;
57231;SDS011;43488;46.934;8.276;2023-02-01T04:49:42;461.95;;;325.08;;
57231;SDS011;43488;46.934;8.276;2023-02-01T04:52:09;474.23;;;236.90;;
57231;SDS011;43488;46.934;8.276;2023-02-01T04:54:37;473.80;;;345.13;;
57231;SDS011;43488;46.934;8.276;2023-02-01T04:57:04;452.92;;;315.33;;
57231;SDS011;43488;46.934;8.276;2023-02-01T04:59:32;470.23;;;238.15;;
57231;SDS011;43488;46.934;8.276;2023-02-01T05:01:59;477.75;;;335.27;;
57231;SDS011;43488;46.934;8.276;2023-02-01T05:04:27;482.98;;;244.60;;
57231;SDS011;43488;46.934;8.276;2023-02-01T05:06:54;476.25;;;319.98;;
57231;SDS011;43488;46.934;8.276;2023-02-01T05:09:22;476.90;;;318.50;;
57231;SDS011;43488;46.934;8.276;2023-02-01T05:11:49;491.95;;;249.68;;
57231;SDS011;43488;46.934;8.276;2023-02-01T05:14:35;487.23;;;243.40;;
57231;SDS011;43488;46.934;8.276;2023-02-01T05:17:02;481.55;;;239.07;;
57231;SDS011;43488;46.934;8.276;2023-02-01T05:19:29;468.38;;;319.25;;
57231;SDS011;43488;46.934;8.276;2023-02-01T05:21:56;486.85;;;248.45;;
57231;SDS011;43488;46.934;8.276;2023-02-01T05:24:27;471.85;;;329.88;;
57231;SDS011;43488;46.934;8.276;2023-02-01T05:26:54;486.58;;;250.10;;
57231;SDS011;43488;46.934;8.276;2023-02-01T05:29:22;471.35;;;328.00;;
57231;SDS011;43488;46.934;8.276;2023-02-01T05:31:49;486.33;;;256.15;;
57231;SDS011;43488;46.934;8.276;2023-02-01T05:34:16;479.52;;;245.20;;
57231;SDS011;43488;46.934;8.276;2023-02-01T05:36:43;493.77;;;257.98;;
57231;SDS011;43488;46.934;8.276;2023-02-01T05:39:11;474.17;;;323.45;;
57231;SDS011;43488;46.934;8.276;2023-02-01T05:41:39;481.77;;;330.13;;
57231;SDS011;43488;46.934;8.276;2023-02-01T05:44:06;478.58;;;333.70;;
57231;SDS011;43488;46.934;8.276;2023-02-01T05:46:34;485.33;;;248.65;;
57231;SDS011;43488;46.934;8.276;2023-02-01T05:49:02;474.83;;;331.92;;
57231;SDS011;43488;46.934;8.276;2023-02-01T05:51:30;470.38;;;324.48;;
57231;SDS011;43488;46.934;8.276;2023-02-01T05:53:57;480.75;;;246.05;;
57231;SDS011;43488;46.934;8.276;2023-02-01T05:56:25;482.13;;;245.48;;
57231;SDS011;43488;46.934;8.276;2023-02-01T05:58:52;472.85;;;331.25;;
57231;SDS011;43488;46.934;8.276;2023-02-01T06:01:19;489.13;;;259.27;;
57231;SDS011;43488;46.934;8.276;2023-02-01T06:03:47;477.05;;;243.63;;
57231;SDS011;43488;46.934;8.276;2023-02-01T06:06:14;483.50;;;246.35;;
57231;SDS011;43488;46.934;8.276;2023-02-01T06:08:41;480.38;;;250.30;;
57231;SDS011;43488;46.934;8.276;2023-02-01T06:11:09;468.50;;;332.83;;
57231;SDS011;43488;46.934;8.276;2023-02-01T06:13:36;476.58;;;243.98;;
57231;SDS011;43488;46.934;8.276;2023-02-01T06:16:05;481.80;;;246.90;;
57231;SDS011;43488;46.934;8.276;2023-02-01T06:18:34;485.02;;;261.58;;
57231;SDS011;43488;46.934;8.276;2023-02-01T06:21:02;453.13;;;316.20;;
57231;SDS011;43488;46.934;8.276;2023-02-01T06:23:30;479.15;;;248.60;;
57231;SDS011;43488;46.934;8.276;2023-02-01T06:25:58;483.52;;;255.10;;
57231;SDS011;43488;46.934;8.276;2023-02-01T06:28:29;471.13;;;240.07;;
57231;SDS011;43488;46.934;8.276;2023-02-01T06:30:58;489.70;;;263.85;;
57231;SDS011;43488;46.934;8.276;2023-02-01T06:33:33;475.70;;;245.25;;
57231;SDS011;43488;46.934;8.276;2023-02-01T06:36:03;474.20;;;244.85;;
57231;SDS011;43488;46.934;8.276;2023-02-01T06:38:33;472.90;;;330.70;;
57231;SDS011;43488;46.934;8.276;2023-02-01T06:41:01;479.27;;;246.93;;
57231;SDS011;43488;46.934;8.276;2023-02-01T06:43:29;464.90;;;327.90;;
57231;SDS011;43488;46.934;8.276;2023-02-01T06:45:59;481.00;;;247.38;;
57231;SDS011;43488;46.934;8.276;2023-02-01T06:48:36;459.92;;;320.75;;
57231;SDS011;43488;46.934;8.276;2023-02-01T06:51:03;480.00;;;249.68;;
57231;SDS011;43488;46.934;8.276;2023-02-01T06:53:31;460.90;;;321.02;;
57231;SDS011;43488;46.934;8.276;2023-02-01T06:55:59;473.92;;;238.73;;
57231;SDS011;43488;46.934;8.276;2023-02-01T06:58:29;484.40;;;254.20;;
57231;SDS011;43488;46.934;8.276;2023-02-01T07:01:05;453.50;;;313.67;;
57231;SDS011;43488;46.934;8.276;2023-02-01T07:03:34;465.02;;;230.07;;
57231;SDS011;43488;46.934;8.276;2023-02-01T07:06:02;454.13;;;309.40;;
57231;SDS011;43488;46.934;8.276;2023-02-01T07:08:32;469.77;;;330.70;;
57231;SDS011;43488;46.934;8.276;2023-02-01T07:11:02;476.80;;;243.40;;
57231;SDS011;43488;46.934;8.276;2023-02-01T07:13:34;479.48;;;247.43;;
57231;SDS011;43488;46.934;8.276;2023-02-01T07:16:03;448.15;;;314.77;;
57231;SDS011;43488;46.934;8.276;2023-02-01T07:21:00;447.30;;;306.58;;
57231;SDS011;43488;46.934;8.276;2023-02-01T07:23:28;474.92;;;344.02;;
57231;SDS011;43488;46.934;8.276;2023-02-01T07:35:48;494.42;;;262.92;;
57231;SDS011;43488;46.934;8.276;2023-02-01T07:38:18;470.88;;;238.70;;
57231;SDS011;43488;46.934;8.276;2023-02-01T07:40:48;462.85;;;321.77;;
57231;SDS011;43488;46.934;8.276;2023-02-01T07:43:15;475.08;;;340.75;;
57231;SDS011;43488;46.934;8.276;2023-02-01T07:45:42;487.73;;;250.15;;
57231;SDS011;43488;46.934;8.276;2023-02-01T07:48:17;474.98;;;241.20;;
57231;SDS011;43488;46.934;8.276;2023-02-01T07:50:44;493.65;;;261.40;;
57231;SDS011;43488;46.934;8.276;2023-02-01T07:53:13;473.10;;;237.85;;
57231;SDS011;43488;46.934;8.276;2023-02-01T07:55:40;495.60;;;260.42;;
57231;SDS011;43488;46.934;8.276;2023-02-01T07:58:08;465.67;;;330.88;;
57231;SDS011;43488;46.934;8.276;2023-02-01T08:00:35;477.67;;;244.98;;
57231;SDS011;43488;46.934;8.276;2023-02-01T08:03:21;469.58;;;328.88;;
57231;SDS011;43488;46.934;8.276;2023-02-01T08:05:56;462.48;;;322.50;;
57231;SDS011;43488;46.934;8.276;2023-02-01T08:08:24;480.65;;;250.00;;
57231;SDS011;43488;46.934;8.276;2023-02-01T08:10:57;497.00;;;267.50;;
57231;SDS011;43488;46.934;8.276;2023-02-01T08:13:29;468.65;;;324.92;;
57231;SDS011;43488;46.934;8.276;2023-02-01T08:16:00;462.40;;;317.95;;
57231;SDS011;43488;46.934;8.276;2023-02-01T08:18:31;474.08;;;332.50;;
57231;SDS011;43488;46.934;8.276;2023-02-01T08:21:04;477.13;;;336.50;;
57231;SDS011;43488;46.934;8.276;2023-02-01T08:23:37;486.20;;;246.88;;
57231;SDS011;43488;46.934;8.276;2023-02-01T08:28:42;506.15;;;285.25;;
57231;SDS011;43488;46.934;8.276;2023-02-01T08:31:22;481.57;;;239.23;;
57231;SDS011;43488;46.934;8.276;2023-02-01T08:33:53;484.27;;;349.27;;
57231;SDS011;43488;46.934;8.276;2023-02-01T08:36:24;461.75;;;320.30;;
57231;SDS011;43488;46.934;8.276;2023-02-01T08:38:55;464.17;;;322.67;;
57231;SDS011;43488;46.934;8.276;2023-02-01T08:41:23;482.05;;;249.82;;
57231;SDS011;43488;46.934;8.276;2023-02-01T08:43:53;469.30;;;330.77;;
57231;SDS011;43488;46.934;8.276;2023-02-01T08:46:22;495.35;;;262.92;;
57231;SDS011;43488;46.934;8.276;2023-02-01T08:48:50;490.55;;;350.17;;
57231;SDS011;43488;46.934;8.276;2023-02-01T08:51:18;477.42;;;334.45;;
57231;SDS011;43488;46.934;8.276;2023-02-01T08:53:48;490.98;;;247.43;;
57231;SDS011;43488;46.934;8.276;2023-02-01T08:56:16;485.70;;;340.88;;
57231;SDS011;43488;46.934;8.276;2023-02-01T08:58:45;493.63;;;245.43;;
57231;SDS011;43488;46.934;8.276;2023-02-01T09:01:13;494.75;;;260.10;;
57231;SDS011;43488;46.934;8.276;2023-02-01T09:03:43;498.60;;;265.50;;
57231;SDS011;43488;46.934;8.276;2023-02-01T09:06:11;480.10;;;333.52;;
57231;SDS011;43488;46.934;8.276;2023-02-01T09:08:40;499.63;;;259.60;;
57231;SDS011;43488;46.934;8.276;2023-02-01T09:11:10;496.67;;;251.00;;
57231;SDS011;43488;46.934;8.276;2023-02-01T09:13:42;499.30;;;256.85;;
57231;SDS011;43488;46.934;8.276;2023-02-01T09:16:09;474.48;;;331.40;;
57231;SDS011;43488;46.934;8.276;2023-02-01T09:18:37;468.92;;;329.80;;
57231;SDS011;43488;46.934;8.276;2023-02-01T09:21:05;480.35;;;348.20;;
57231;SDS011;43488;46.934;8.276;2023-02-01T09:23:33;473.25;;;335.85;;
57231;SDS011;43488;46.934;8.276;2023-02-01T09:26:02;490.20;;;253.85;;
57231;SDS011;43488;46.934;8.276;2023-02-01T09:28:31;466.15;;;318.23;;
57231;SDS011;43488;46.934;8.276;2023-02-01T09:30:59;490.83;;;238.48;;
57231;SDS011;43488;46.934;8.276;2023-02-01T09:33:27;481.88;;;241.90;;
57231;SDS011;43488;46.934;8.276;2023-02-01T09:35:59;479.60;;;337.38;;
57231;SDS011;43488;46.934;8.276;2023-02-01T09:38:30;477.40;;;337.38;;
57231;SDS011;43488;46.934;8.276;2023-02-01T09:40:58;482.33;;;336.48;;
57231;SDS011;43488;46.934;8.276;2023-02-01T09:46:18;464.30;;;323.42;;
57231;SDS011;43488;46.934;8.276;2023-02-01T09:48:52;491.88;;;241.90;;
57231;SDS011;43488;46.934;8.276;2023-02-01T09:51:30;464.92;;;323.17;;
57231;SDS011;43488;46.934;8.276;2023-02-01T09:56:57;465.65;;;329.05;;
57231;SDS011;43488;46.934;8.276;2023-02-01T10:02:30;487.52;;;336.52;;
57231;SDS011;43488;46.934;8.276;2023-02-01T10:05:05;461.50;;;330.02;;
57231;SDS011;43488;46.934;8.276;2023-02-01T10:10:41;490.02;;;244.63;;
57231;SDS011;43488;46.934;8.276;2023-02-01T10:13:23;492.17;;;250.20;;
57231;SDS011;43488;46.934;8.276;2023-02-01T10:16:27;485.35;;;247.38;;
57231;SDS011;43488;46.934;8.276;2023-02-01T10:22:09;438.27;;;219.18;;
57231;SDS011;43488;46.934;8.276;2023-02-01T10:24:46;435.30;;;306.63;;
57231;SDS011;43488;46.934;8.276;2023-02-01T10:27:27;469.20;;;229.68;;
57231;SDS011;43488;46.934;8.276;2023-02-01T10:30:04;433.30;;;297.38;;
57231;SDS011;43488;46.934;8.276;2023-02-01T10:32:42;429.25;;;301.92;;
57231;SDS011;43488;46.934;8.276;2023-02-01T10:35:15;420.92;;;295.02;;
57231;SDS011;43488;46.934;8.276;2023-02-01T10:37:48;441.65;;;205.27;;
57231;SDS011;43488;46.934;8.276;2023-02-01T10:40:24;431.60;;;299.63;;
57231;SDS011;43488;46.934;8.276;2023-02-01T10:42:57;445.90;;;209.45;;
57231;SDS011;43488;46.934;8.276;2023-02-01T10:45:29;436.55;;;307.67;;
57231;SDS011;43488;46.934;8.276;2023-02-01T10:47:59;459.15;;;325.20;;
57231;SDS011;43488;46.934;8.276;2023-02-01T10:53:20;436.00;;;305.73;;
57231;SDS011;43488;46.934;8.276;2023-02-01T10:55:53;433.55;;;304.70;;
57231;SDS011;43488;46.934;8.276;2023-02-01T10:58:28;426.42;;;298.80;;
57231;SDS011;43488;46.934;8.276;2023-02-01T11:01:02;486.50;;;243.75;;
57231;SDS011;43488;46.934;8.276;2023-02-01T11:03:43;480.20;;;229.88;;
57231;SDS011;43488;46.934;8.276;2023-02-01T11:08:56;471.30;;;318.70;;
57231;SDS011;43488;46.934;8.276;2023-02-01T11:11:27;476.70;;;323.92;;
57231;SDS011;43488;46.934;8.276;2023-02-01T11:13:59;511.75;;;257.60;;
57231;SDS011;43488;46.934;8.276;2023-02-01T11:29:23;525.30;;;240.32;;
57231;SDS011;43488;46.934;8.276;2023-02-01T11:31:56;492.05;;;329.98;;
57231;SDS011;43488;46.934;8.276;2023-02-01T11:39:35;532.78;;;263.73;;
57231;SDS011;43488;46.934;8.276;2023-02-01T11:42:04;481.88;;;318.00;;
57231;SDS011;43488;46.934;8.276;2023-02-01T11:50:08;514.40;;;260.75;;
57231;SDS011;43488;46.934;8.276;2023-02-01T12:15:15;570.50;;;242.85;;
57231;SDS011;43488;46.934;8.276;2023-02-01T12:25:11;641.22;;;502.88;;
57231;SDS011;43488;46.934;8.276;2023-02-01T12:30:55;652.67;;;462.73;;
57231;SDS011;43488;46.934;8.276;2023-02-01T12:43:16;660.05;;;475.88;;
57231;SDS011;43488;46.934;8.276;2023-02-01T12:45:59;671.28;;;532.63;;
57231;SDS011;43488;46.934;8.276;2023-02-01T12:48:40;657.85;;;461.70;;
57231;SDS011;43488;46.934;8.276;2023-02-01T12:51:29;666.67;;;445.67;;
57231;SDS011;43488;46.934;8.276;2023-02-01T12:57:25;653.70;;;448.67;;
57231;SDS011;43488;46.934;8.276;2023-02-01T13:06:10;669.05;;;475.92;;
57231;SDS011;43488;46.934;8.276;2023-02-01T13:09:03;649.78;;;472.83;;
57231;SDS011;43488;46.934;8.276;2023-02-01T13:12:01;660.88;;;410.00;;
57231;SDS011;43488;46.934;8.276;2023-02-01T13:14:53;658.95;;;438.00;;
57231;SDS011;43488;46.934;8.276;2023-02-01T13:17:27;655.80;;;491.00;;
57231;SDS011;43488;46.934;8.276;2023-02-01T13:20:03;654.70;;;451.08;;
57231;SDS011;43488;46.934;8.276;2023-02-01T13:25:33;656.13;;;484.25;;
57231;SDS011;43488;46.934;8.276;2023-02-01T13:28:18;673.67;;;489.55;;
57231;SDS011;43488;46.934;8.276;2023-02-01T13:43:02;686.75;;;551.30;;
57231;SDS011;43488;46.934;8.276;2023-02-01T13:45:42;664.10;;;542.22;;
57231;SDS011;43488;46.934;8.276;2023-02-01T13:48:26;676.15;;;558.65;;
57231;SDS011;43488;46.934;8.276;2023-02-01T13:51:05;682.03;;;547.05;;
57231;SDS011;43488;46.934;8.276;2023-02-01T13:53:34;655.47;;;543.08;;
57231;SDS011;43488;46.934;8.276;2023-02-01T13:56:07;676.08;;;556.83;;
57231;SDS011;43488;46.934;8.276;2023-02-01T13:58:41;666.30;;;535.97;;
57231;SDS011;43488;46.934;8.276;2023-02-01T14:06:45;655.95;;;549.72;;
57231;SDS011;43488;46.934;8.276;2023-02-01T14:09:15;664.75;;;524.45;;
57231;SDS011;43488;46.934;8.276;2023-02-01T14:11:47;668.75;;;542.17;;
57231;SDS011;43488;46.934;8.276;2023-02-01T14:21:53;654.53;;;511.52;;
57231;SDS011;43488;46.934;8.276;2023-02-01T14:27:06;676.10;;;504.83;;
57231;SDS011;43488;46.934;8.276;2023-02-01T14:29:50;670.78;;;484.55;;
57231;SDS011;43488;46.934;8.276;2023-02-01T14:32:25;654.45;;;531.45;;
57231;SDS011;43488;46.934;8.276;2023-02-01T14:35:00;648.90;;;510.65;;
57231;SDS011;43488;46.934;8.276;2023-02-01T14:37:35;667.17;;;510.25;;
57231;SDS011;43488;46.934;8.276;2023-02-01T14:47:54;663.90;;;446.70;;
57231;SDS011;43488;46.934;8.276;2023-02-01T14:50:42;650.75;;;468.73;;
57231;SDS011;43488;46.934;8.276;2023-02-01T14:53:15;636.03;;;489.95;;
57231;SDS011;43488;46.934;8.276;2023-02-01T14:55:59;641.90;;;440.08;;
57231;SDS011;43488;46.934;8.276;2023-02-01T14:58:39;646.55;;;412.83;;
57231;SDS011;43488;46.934;8.276;2023-02-01T15:04:08;624.90;;;425.52;;
57231;SDS011;43488;46.934;8.276;2023-02-01T15:06:52;617.13;;;368.60;;
57231;SDS011;43488;46.934;8.276;2023-02-01T15:09:29;629.63;;;329.73;;
57231;SDS011;43488;46.934;8.276;2023-02-01T15:17:49;604.25;;;314.30;;
57231;SDS011;43488;46.934;8.276;2023-02-01T15:20:23;586.15;;;385.05;;
57231;SDS011;43488;46.934;8.276;2023-02-01T15:25:32;605.30;;;323.85;;
57231;SDS011;43488;46.934;8.276;2023-02-01T15:28:05;610.17;;;325.20;;
57231;SDS011;43488;46.934;8.276;2023-02-01T15:30:40;600.03;;;285.90;;
57231;SDS011;43488;46.934;8.276;2023-02-01T15:35:50;588.08;;;280.63;;
57231;SDS011;43488;46.934;8.276;2023-02-01T15:38:39;566.50;;;354.27;;
57231;SDS011;43488;46.934;8.276;2023-02-01T15:46:40;589.28;;;295.77;;
57231;SDS011;43488;46.934;8.276;2023-02-01T15:49:26;582.17;;;383.88;;
57231;SDS011;43488;46.934;8.276;2023-02-01T15:52:03;590.40;;;292.20;;
57231;SDS011;43488;46.934;8.276;2023-02-01T15:55:02;584.30;;;286.63;;
57231;SDS011;43488;46.934;8.276;2023-02-01T15:57:49;573.30;;;287.00;;
57231;SDS011;43488;46.934;8.276;2023-02-01T16:02:58;575.40;;;282.98;;
57231;SDS011;43488;46.934;8.276;2023-02-01T16:08:15;577.97;;;303.17;;
57231;SDS011;43488;46.934;8.276;2023-02-01T16:10:53;571.72;;;282.30;;
57231;SDS011;43488;46.934;8.276;2023-02-01T16:13:52;556.83;;;268.17;;
57231;SDS011;43488;46.934;8.276;2023-02-01T16:16:19;529.55;;;340.58;;
57231;SDS011;43488;46.934;8.276;2023-02-01T16:18:48;542.42;;;363.55;;
57231;SDS011;43488;46.934;8.276;2023-02-01T16:21:16;539.45;;;353.13;;
57231;SDS011;43488;46.934;8.276;2023-02-01T16:23:50;537.95;;;355.17;;
57231;SDS011;43488;46.934;8.276;2023-02-01T16:26:20;543.22;;;259.80;;
57231;SDS011;43488;46.934;8.276;2023-02-01T16:28:48;545.95;;;264.20;;
57231;SDS011;43488;46.934;8.276;2023-02-01T16:31:16;544.95;;;259.35;;
57231;SDS011;43488;46.934;8.276;2023-02-01T16:33:54;551.17;;;277.75;;
57231;SDS011;43488;46.934;8.276;2023-02-01T16:36:23;530.15;;;351.35;;
57231;SDS011;43488;46.934;8.276;2023-02-01T16:38:54;547.67;;;265.43;;
57231;SDS011;43488;46.934;8.276;2023-02-01T16:41:22;537.63;;;256.40;;
57231;SDS011;43488;46.934;8.276;2023-02-01T16:43:52;538.97;;;257.83;;
57231;SDS011;43488;46.934;8.276;2023-02-01T16:46:21;536.40;;;359.48;;
57231;SDS011;43488;46.934;8.276;2023-02-01T16:48:54;554.83;;;281.65;;
57231;SDS011;43488;46.934;8.276;2023-02-01T16:51:26;519.38;;;337.55;;
57231;SDS011;43488;46.934;8.276;2023-02-01T16:54:00;534.05;;;241.82;;
57231;SDS011;43488;46.934;8.276;2023-02-01T16:56:29;530.38;;;244.90;;
57231;SDS011;43488;46.934;8.276;2023-02-01T16:59:00;505.88;;;318.98;;
57231;SDS011;43488;46.934;8.276;2023-02-01T17:01:28;529.08;;;234.55;;
57231;SDS011;43488;46.934;8.276;2023-02-01T17:03:56;529.03;;;245.85;;
57231;SDS011;43488;46.934;8.276;2023-02-01T17:06:24;515.75;;;224.75;;
57231;SDS011;43488;46.934;8.276;2023-02-01T17:08:54;531.05;;;239.55;;
57231;SDS011;43488;46.934;8.276;2023-02-01T17:11:26;500.83;;;313.55;;
57231;SDS011;43488;46.934;8.276;2023-02-01T17:13:57;521.95;;;241.55;;
57231;SDS011;43488;46.934;8.276;2023-02-01T17:16:41;496.73;;;314.15;;
57231;SDS011;43488;46.934;8.276;2023-02-01T17:19:12;529.50;;;240.57;;
57231;SDS011;43488;46.934;8.276;2023-02-01T17:21:47;521.47;;;244.52;;
57231;SDS011;43488;46.934;8.276;2023-02-01T17:24:25;497.95;;;330.75;;
57231;SDS011;43488;46.934;8.276;2023-02-01T17:26:58;530.53;;;240.85;;
57231;SDS011;43488;46.934;8.276;2023-02-01T17:29:26;513.42;;;336.83;;
57231;SDS011;43488;46.934;8.276;2023-02-01T17:31:54;520.72;;;235.27;;
57231;SDS011;43488;46.934;8.276;2023-02-01T17:34:22;512.33;;;336.02;;
57231;SDS011;43488;46.934;8.276;2023-02-01T17:36:49;522.15;;;243.45;;
57231;SDS011;43488;46.934;8.276;2023-02-01T17:39:17;510.55;;;351.80;;
57231;SDS011;43488;46.934;8.276;2023-02-01T17:42:03;549.25;;;273.60;;
57231;SDS011;43488;46.934;8.276;2023-02-01T17:44:32;507.73;;;342.05;;
57231;SDS011;43488;46.934;8.276;2023-02-01T17:46:59;521.20;;;244.63;;
57231;SDS011;43488;46.934;8.276;2023-02-01T17:49:26;490.38;;;323.23;;
57231;SDS011;43488;46.934;8.276;2023-02-01T17:52:08;499.10;;;328.15;;
57231;SDS011;43488;46.934;8.276;2023-02-01T17:54:43;533.90;;;268.27;;
57231;SDS011;43488;46.934;8.276;2023-02-01T17:57:13;526.85;;;243.85;;
57231;SDS011;43488;46.934;8.276;2023-02-01T17:59:40;497.83;;;335.88;;